Terminal Aerodrome Forecast
Issued by NWS

Home | Current Version | Previous Version | Graphics & Text | Print | Product List | Glossary On
Versions: 1 2 3 4 5 6 7 8 9 10 11 12 13 14 15 16 17 18 19 20 21 22 23 24 25 26 27 28 29 30 31 32 33 34 35 36
000
FTUS43 KLOT 271700
TAFORD
TAF
KORD 271724Z 2718/2824 28008KT P6SM SKC
     FM280100 24004KT P6SM FEW150
     FM281500 19006KT P6SM FEW025 FEW150
     FM282100 17008KT P6SM SCT025 BKN120=

USA.gov is the U.S. government's official web portal to all federal, state and local government web resources and services.